createdAt,value
2018-04-15T00:01:10.994Z,9.30
2018-04-15T00:03:39.676Z,9.31
2018-04-15T00:06:08.067Z,9.31
2018-04-15T00:08:36.714Z,9.30
2018-04-15T00:11:05.706Z,9.30
2018-04-15T00:13:35.193Z,9.29
2018-04-15T00:16:04.712Z,9.31
2018-04-15T00:18:35.095Z,9.28
2018-04-15T00:21:03.377Z,9.28
2018-04-15T00:23:32.655Z,9.29
2018-04-15T00:26:01.634Z,9.31
2018-04-15T00:28:31.935Z,9.29
2018-04-15T00:31:02.215Z,9.30
2018-04-15T00:33:31.290Z,9.30
2018-04-15T00:36:00.994Z,9.33
2018-04-15T00:38:29.596Z,9.33
2018-04-15T00:40:58.595Z,9.34
2018-04-15T00:43:27.094Z,9.38
2018-04-15T00:45:55.554Z,9.36
2018-04-15T00:48:23.966Z,9.38
2018-04-15T00:50:52.262Z,9.37
2018-04-15T00:53:21.983Z,9.35
2018-04-15T00:55:51.267Z,9.36
2018-04-15T00:58:20.322Z,9.36
2018-04-15T01:00:48.590Z,9.36
2018-04-15T01:03:16.962Z,9.34
2018-04-15T01:05:47.597Z,9.29
2018-04-15T01:08:15.866Z,9.30
2018-04-15T01:10:44.383Z,9.27
2018-04-15T01:13:13.915Z,9.27
2018-04-15T01:15:42.318Z,9.26
2018-04-15T01:18:12.231Z,9.23
2018-04-15T01:20:41.300Z,9.22
2018-04-15T01:23:10.374Z,9.22
2018-04-15T01:25:38.659Z,9.21
2018-04-15T01:28:06.923Z,9.21
2018-04-15T01:30:35.304Z,9.22
2018-04-15T01:33:03.874Z,9.18
2018-04-15T01:35:32.255Z,9.20
2018-04-15T01:38:00.532Z,9.19
2018-04-15T01:40:29.146Z,9.19
2018-04-15T01:42:57.698Z,9.21
2018-04-15T01:45:26.066Z,9.19
2018-04-15T01:47:54.353Z,9.20
2018-04-15T01:50:22.642Z,9.21
2018-04-15T01:52:50.920Z,9.21
2018-04-15T01:55:21.319Z,9.25
2018-04-15T01:57:49.608Z,9.22
2018-04-15T02:00:18.475Z,9.20
2018-04-15T02:02:47.723Z,9.20
2018-04-15T02:05:16.950Z,9.19
2018-04-15T02:07:45.639Z,9.17
2018-04-15T02:10:14.418Z,9.20
2018-04-15T02:12:44.048Z,9.21
2018-04-15T02:15:12.364Z,9.19
2018-04-15T02:17:40.668Z,9.20
2018-04-15T02:20:09.463Z,9.22
2018-04-15T02:22:38.051Z,9.20
2018-04-15T02:25:06.430Z,9.21
2018-04-15T02:27:34.838Z,9.19
2018-04-15T02:30:03.345Z,9.19
2018-04-15T02:32:32.487Z,9.20
2018-04-15T02:35:00.862Z,9.17
2018-04-15T02:37:29.142Z,9.18
2018-04-15T02:39:58.871Z,9.17
2018-04-15T02:42:27.435Z,9.15
2018-04-15T02:44:56.459Z,9.17
2018-04-15T02:47:24.842Z,9.13
2018-04-15T02:49:53.107Z,9.14
2018-04-15T02:52:21.859Z,9.17
2018-04-15T02:54:50.262Z,9.13
2018-04-15T02:57:19.053Z,9.06
2018-04-15T02:59:47.362Z,9.05
2018-04-15T03:02:15.785Z,9.05
2018-04-15T03:04:44.094Z,9.09
2018-04-15T03:07:12.477Z,9.08
2018-04-15T03:09:40.859Z,9.10
2018-04-15T03:12:09.991Z,9.07
2018-04-15T03:14:39.368Z,9.07
2018-04-15T03:17:09.202Z,9.00
2018-04-15T03:19:38.586Z,8.95
2018-04-15T03:22:06.854Z,8.93
2018-04-15T03:24:35.175Z,8.93
2018-04-15T03:27:04.232Z,8.92
2018-04-15T03:29:32.537Z,8.95
2018-04-15T03:32:00.830Z,8.96
2018-04-15T03:34:30.070Z,9.01
2018-04-15T03:37:00.073Z,8.96
2018-04-15T03:39:28.348Z,8.94
2018-04-15T03:41:56.650Z,8.91
2018-04-15T03:44:24.966Z,8.89
2018-04-15T03:46:53.738Z,8.90
2018-04-15T03:49:25.809Z,8.89
2018-04-15T03:51:54.362Z,8.91
2018-04-15T03:54:23.401Z,8.89
2018-04-15T03:56:52.249Z,8.86
2018-04-15T03:59:20.885Z,8.79
2018-04-15T04:01:50.530Z,8.76
2018-04-15T04:04:19.053Z,8.71
2018-04-15T04:06:49.069Z,8.69
2018-04-15T04:09:17.556Z,8.66
2018-04-15T04:11:47.317Z,8.62
2018-04-15T04:14:15.952Z,8.54
2018-04-15T04:16:44.233Z,8.41
2018-04-15T04:22:52.712Z,8.28
2018-04-15T04:25:30.234Z,8.23
2018-04-15T04:27:58.719Z,8.20
2018-04-15T04:30:27.814Z,8.10
2018-04-15T04:32:56.082Z,8.02
2018-04-15T04:35:25.125Z,7.92
2018-04-15T04:37:53.675Z,7.82
2018-04-15T04:40:22.799Z,7.75
2018-04-15T04:42:51.147Z,7.75
2018-04-15T04:45:19.527Z,7.72
2018-04-15T04:47:47.822Z,7.75
2018-04-15T04:50:17.146Z,7.73
2018-04-15T04:52:45.495Z,7.70
2018-04-15T04:55:14.575Z,7.65
2018-04-15T04:57:44.232Z,7.60
2018-04-15T05:00:12.883Z,7.63
2018-04-15T05:02:42.110Z,7.65
2018-04-15T05:05:11.019Z,7.64
2018-04-15T05:07:40.545Z,7.67
2018-04-15T05:10:11.074Z,7.68
2018-04-15T05:12:40.503Z,7.71
2018-04-15T05:15:08.776Z,7.74
2018-04-15T05:17:37.043Z,7.81
2018-04-15T05:20:05.678Z,7.88
2018-04-15T05:22:34.022Z,7.93
2018-04-15T05:25:02.336Z,8.03
2018-04-15T05:27:30.630Z,8.06
2018-04-15T05:29:59.027Z,8.10
2018-04-15T05:32:29.296Z,8.06
2018-04-15T05:34:57.607Z,8.13
2018-04-15T05:37:25.891Z,8.17
2018-04-15T05:39:54.383Z,8.19
2018-04-15T05:42:23.202Z,8.27
2018-04-15T05:44:52.108Z,8.32
2018-04-15T05:47:20.714Z,8.34
2018-04-15T05:49:49.430Z,8.40
2018-04-15T05:52:17.757Z,8.45
2018-04-15T05:54:46.175Z,8.38
2018-04-15T05:57:14.450Z,8.43
2018-04-15T05:59:43.052Z,8.42
2018-04-15T06:02:11.365Z,8.52
2018-04-15T06:04:40.158Z,8.57
2018-04-15T06:07:09.002Z,8.57
2018-04-15T06:09:37.550Z,8.64
2018-04-15T06:12:06.564Z,8.57
2018-04-15T06:14:35.218Z,8.74
2018-04-15T06:17:04.554Z,8.74
2018-04-15T06:19:33.275Z,8.75
2018-04-15T06:22:01.562Z,8.94
2018-04-15T06:24:30.820Z,9.00
2018-04-15T06:26:59.120Z,8.90
2018-04-15T06:29:28.168Z,9.02
2018-04-15T06:31:56.550Z,9.05
2018-04-15T06:34:25.782Z,9.14
2018-04-15T06:36:54.885Z,9.20
2018-04-15T06:39:23.750Z,9.24
2018-04-15T06:41:52.902Z,9.33
2018-04-15T06:44:22.862Z,9.36
2018-04-15T06:46:52.390Z,9.42
2018-04-15T06:49:20.684Z,9.50
2018-04-15T06:51:48.960Z,9.55
2018-04-15T06:54:17.865Z,9.52
2018-04-15T06:56:46.150Z,9.66
2018-04-15T06:59:15.298Z,9.76
2018-04-15T07:01:44.435Z,9.85
2018-04-15T07:04:13.024Z,9.89
2018-04-15T07:06:42.110Z,9.93
2018-04-15T07:09:10.802Z,9.98
2018-04-15T07:11:39.885Z,9.97
2018-04-15T07:14:08.159Z,10.07
2018-04-15T07:16:36.482Z,10.09
2018-04-15T07:19:05.736Z,10.10
2018-04-15T07:21:34.050Z,10.14
2018-04-15T07:24:03.083Z,10.18
2018-04-15T07:26:33.549Z,10.21
2018-04-15T07:29:02.346Z,10.24
2018-04-15T07:31:30.663Z,10.36
2018-04-15T07:33:59.268Z,10.35
2018-04-15T07:36:28.408Z,10.30
2018-04-15T07:38:56.675Z,10.32
2018-04-15T07:41:24.970Z,10.28
2018-04-15T07:43:54.567Z,10.36
2018-04-15T07:46:23.357Z,10.35
2018-04-15T07:48:56.547Z,10.31
2018-04-15T07:51:24.899Z,10.37
2018-04-15T07:53:53.491Z,10.23
2018-04-15T07:56:22.739Z,10.24
2018-04-15T07:58:52.084Z,10.19
2018-04-15T08:01:21.175Z,10.17
2018-04-15T08:03:49.462Z,10.16
2018-04-15T08:06:17.754Z,10.19
2018-04-15T08:08:46.771Z,10.17
2018-04-15T08:11:15.075Z,10.22
2018-04-15T08:13:44.021Z,10.25
2018-04-15T08:16:12.314Z,10.27
2018-04-15T08:18:40.651Z,10.25
2018-04-15T08:21:09.740Z,10.28
2018-04-15T08:23:38.014Z,10.21
2018-04-15T08:26:06.411Z,10.19
2018-04-15T08:28:34.723Z,10.22
2018-04-15T08:31:03.032Z,10.19
2018-04-15T08:33:32.075Z,10.20
2018-04-15T08:36:00.386Z,10.25
2018-04-15T08:38:28.787Z,10.28
2018-04-15T08:40:57.314Z,10.34
2018-04-15T08:43:26.000Z,10.32
2018-04-15T08:45:54.321Z,10.33
2018-04-15T08:48:23.410Z,10.41
2018-04-15T08:50:51.706Z,10.49
2018-04-15T08:53:22.375Z,10.45
2018-04-15T08:55:52.227Z,10.47
2018-04-15T08:58:20.501Z,10.47
2018-04-15T09:00:49.256Z,10.52
2018-04-15T09:03:18.299Z,10.49
2018-04-15T09:05:46.578Z,10.53
2018-04-15T09:08:15.035Z,10.51
2018-04-15T09:10:45.730Z,10.59
2018-04-15T09:13:14.015Z,10.61
2018-04-15T09:15:42.387Z,10.68
2018-04-15T09:18:10.720Z,10.67
2018-04-15T09:20:38.961Z,10.64
2018-04-15T09:23:07.267Z,10.53
2018-04-15T09:25:36.605Z,10.47
2018-04-15T09:28:05.762Z,10.63
2018-04-15T09:30:39.542Z,10.66
2018-04-15T09:33:08.301Z,10.72
2018-04-15T09:35:38.266Z,10.64
2018-04-15T09:38:07.490Z,10.51
2018-04-15T09:40:35.888Z,10.56
2018-04-15T09:43:04.954Z,10.65
2018-04-15T09:45:33.335Z,10.60
2018-04-15T09:48:01.659Z,10.59
2018-04-15T09:50:30.728Z,10.50
2018-04-15T09:52:59.067Z,10.51
2018-04-15T09:55:28.184Z,10.54
2018-04-15T09:57:56.474Z,10.64
2018-04-15T10:00:24.774Z,10.66
2018-04-15T10:02:53.915Z,10.57
2018-04-15T10:05:22.241Z,10.74
2018-04-15T10:07:52.062Z,10.79
2018-04-15T10:10:21.396Z,10.93
2018-04-15T10:12:49.691Z,10.77
2018-04-15T10:15:18.691Z,10.82
2018-04-15T10:17:47.534Z,10.65
2018-04-15T10:20:21.114Z,10.76
2018-04-15T10:22:49.682Z,10.71
2018-04-15T10:25:17.967Z,10.71
2018-04-15T10:27:46.844Z,10.71
2018-04-15T10:30:15.850Z,10.81
2018-04-15T10:32:44.232Z,10.91
2018-04-15T10:35:12.606Z,11.03
2018-04-15T10:37:41.616Z,11.08
2018-04-15T10:40:09.901Z,11.21
2018-04-15T10:42:38.233Z,11.30
2018-04-15T10:45:06.626Z,11.31
2018-04-15T10:47:35.239Z,11.26
2018-04-15T10:50:03.592Z,11.33
2018-04-15T10:52:31.882Z,11.21
2018-04-15T10:55:00.378Z,11.39
2018-04-15T10:57:29.552Z,11.51
2018-04-15T10:59:58.075Z,11.14
2018-04-15T11:02:27.958Z,11.15
2018-04-15T11:04:57.669Z,11.15
2018-04-15T11:07:26.672Z,11.12
2018-04-15T11:09:55.004Z,11.24
2018-04-15T11:12:23.310Z,11.45
2018-04-15T11:14:51.699Z,11.58
2018-04-15T11:17:20.168Z,11.54
2018-04-15T11:19:48.451Z,11.66
2018-04-15T11:22:17.026Z,11.57
2018-04-15T11:24:46.182Z,11.42
2018-04-15T11:27:15.739Z,11.33
2018-04-15T11:29:44.069Z,11.43
2018-04-15T11:32:13.107Z,11.48
2018-04-15T11:34:41.482Z,11.59
2018-04-15T11:37:09.770Z,11.67
2018-04-15T11:39:38.060Z,11.96
2018-04-15T11:42:06.452Z,12.11
2018-04-15T11:44:34.703Z,12.18
2018-04-15T11:47:02.984Z,12.04
2018-04-15T11:49:31.287Z,12.16
2018-04-15T11:51:59.919Z,11.98
2018-04-15T11:54:28.210Z,12.03
2018-04-15T11:56:56.720Z,12.12
2018-04-15T11:59:25.010Z,11.94
2018-04-15T12:01:53.590Z,11.86
2018-04-15T12:04:21.893Z,11.91
2018-04-15T12:06:50.946Z,12.19
2018-04-15T12:09:19.282Z,12.34
2018-04-15T12:11:47.921Z,12.50
2018-04-15T12:14:16.574Z,12.87
2018-04-15T12:16:44.895Z,13.06
2018-04-15T12:19:13.391Z,12.94
2018-04-15T12:21:42.331Z,13.01
2018-04-15T12:24:10.725Z,12.83
2018-04-15T12:26:39.015Z,12.81
2018-04-15T12:29:07.830Z,12.67
2018-04-15T12:31:36.131Z,12.41
2018-04-15T12:34:05.557Z,12.33
2018-04-15T12:36:33.839Z,12.44
2018-04-15T12:39:02.171Z,12.43
2018-04-15T12:41:30.959Z,12.35
2018-04-15T12:44:00.056Z,12.36
2018-04-15T12:46:28.897Z,12.21
2018-04-15T12:48:57.184Z,12.14
2018-04-15T12:51:25.806Z,12.07
2018-04-15T12:53:54.099Z,11.91
2018-04-15T12:56:23.179Z,11.92
2018-04-15T12:58:51.527Z,11.95
2018-04-15T13:01:19.814Z,11.78
2018-04-15T13:03:48.179Z,11.86
2018-04-15T13:06:16.663Z,11.88
2018-04-15T13:08:45.772Z,11.90
2018-04-15T13:11:15.809Z,12.02
2018-04-15T13:13:45.238Z,12.13
2018-04-15T13:16:15.370Z,12.11
2018-04-15T13:18:44.436Z,12.23
2018-04-15T13:21:12.707Z,12.19
2018-04-15T13:23:41.093Z,11.98
2018-04-15T13:26:10.551Z,11.85
2018-04-15T13:28:38.859Z,11.90
2018-04-15T13:31:07.136Z,12.02
2018-04-15T13:33:35.607Z,11.76
2018-04-15T13:36:03.903Z,11.78
2018-04-15T13:38:32.700Z,11.62
2018-04-15T13:41:01.064Z,11.76
2018-04-15T13:43:29.450Z,11.92
2018-04-15T13:45:58.207Z,12.13
2018-04-15T13:48:26.510Z,12.13
2018-04-15T13:50:54.795Z,12.12
2018-04-15T13:53:23.158Z,12.00
2018-04-15T13:55:52.174Z,12.07
2018-04-15T13:58:20.467Z,12.39
2018-04-15T14:00:48.742Z,12.32
2018-04-15T14:03:17.151Z,12.32
2018-04-15T14:05:45.434Z,12.38
2018-04-15T14:08:13.806Z,12.49
2018-04-15T14:10:43.046Z,12.67
2018-04-15T14:13:12.125Z,12.68
2018-04-15T14:15:40.419Z,12.96
2018-04-15T14:18:08.738Z,12.95
2018-04-15T14:20:37.035Z,13.08
2018-04-15T14:23:06.098Z,13.21
2018-04-15T14:25:34.763Z,12.96
2018-04-15T14:28:03.038Z,12.99
2018-04-15T14:30:32.152Z,12.96
2018-04-15T14:33:00.639Z,12.82
2018-04-15T14:35:28.947Z,12.95
2018-04-15T14:37:57.235Z,13.01
2018-04-15T14:40:27.153Z,12.68
2018-04-15T14:42:55.734Z,13.02
2018-04-15T14:45:25.311Z,13.38
2018-04-15T14:47:55.081Z,13.33
2018-04-15T14:50:23.362Z,13.34
2018-04-15T14:52:53.168Z,13.41
2018-04-15T14:55:21.454Z,13.28
2018-04-15T14:57:50.996Z,12.99
2018-04-15T15:00:19.491Z,13.08
2018-04-15T15:02:47.847Z,13.29
2018-04-15T15:05:16.747Z,13.46
2018-04-15T15:07:45.122Z,13.30
2018-04-15T15:10:13.703Z,12.87
2018-04-15T15:12:41.983Z,12.98
2018-04-15T15:15:10.306Z,13.10
2018-04-15T15:17:39.473Z,13.13
2018-04-15T15:20:08.008Z,13.19
2018-04-15T15:22:36.336Z,13.28
2018-04-15T15:25:05.535Z,13.12
2018-04-15T15:27:33.808Z,13.01
2018-04-15T15:30:02.599Z,12.99
2018-04-15T15:32:30.935Z,12.98
2018-04-15T15:34:59.218Z,12.92
2018-04-15T15:37:28.939Z,12.90
2018-04-15T15:39:57.244Z,12.92
2018-04-15T15:42:25.548Z,12.87
2018-04-15T15:44:54.902Z,12.87
2018-04-15T15:47:23.975Z,12.84
2018-04-15T15:49:52.858Z,12.78
2018-04-15T15:52:21.140Z,12.80
2018-04-15T15:54:49.429Z,12.78
2018-04-15T15:57:17.743Z,12.91
2018-04-15T15:59:46.018Z,12.93
2018-04-15T16:02:14.400Z,12.86
2018-04-15T16:04:42.779Z,12.87
2018-04-15T16:07:11.061Z,12.83
2018-04-15T16:09:39.400Z,12.83
2018-04-15T16:12:08.007Z,12.77
2018-04-15T16:14:36.320Z,12.77
2018-04-15T16:17:04.975Z,12.86
2018-04-15T16:19:33.275Z,12.95
2018-04-15T16:22:02.362Z,12.66
2018-04-15T16:24:30.683Z,12.66
2018-04-15T16:27:00.173Z,12.72
2018-04-15T16:29:30.166Z,12.68
2018-04-15T16:31:59.458Z,12.67
2018-04-15T16:34:27.751Z,12.68
2018-04-15T16:36:56.077Z,12.73
2018-04-15T16:39:25.933Z,12.76
2018-04-15T16:41:54.851Z,12.78
2018-04-15T16:44:24.153Z,12.75
2018-04-15T16:46:54.346Z,12.77
2018-04-15T16:49:22.976Z,12.72
2018-04-15T16:51:52.305Z,12.79
2018-04-15T16:54:20.615Z,12.95
2018-04-15T16:56:48.899Z,13.15
2018-04-15T16:59:17.545Z,13.06
2018-04-15T17:01:46.632Z,13.14
2018-04-15T17:04:14.937Z,13.13
2018-04-15T17:06:43.668Z,13.01
2018-04-15T17:09:11.972Z,13.05
2018-04-15T17:11:40.274Z,13.05
2018-04-15T17:14:08.584Z,12.89
2018-04-15T17:16:37.912Z,12.95
2018-04-15T17:19:07.834Z,12.72
2018-04-15T17:21:36.885Z,12.86
2018-04-15T17:24:05.333Z,12.72
2018-04-15T17:26:36.688Z,12.65
2018-04-15T17:29:05.092Z,12.56
2018-04-15T17:31:33.531Z,12.45
2018-04-15T17:34:02.899Z,12.40
2018-04-15T17:36:31.227Z,12.44
2018-04-15T17:38:59.515Z,12.43
2018-04-15T17:41:27.935Z,12.31
2018-04-15T17:43:57.280Z,12.13
2018-04-15T17:46:25.570Z,12.22
2018-04-15T17:48:54.278Z,12.24
2018-04-15T17:51:22.589Z,12.19
2018-04-15T17:53:50.936Z,12.18
2018-04-15T17:56:20.207Z,12.22
2018-04-15T17:58:48.517Z,12.22
2018-04-15T18:01:16.874Z,12.18
2018-04-15T18:03:45.197Z,12.13
2018-04-15T18:06:14.259Z,12.26
2018-04-15T18:08:42.870Z,12.12
2018-04-15T18:11:11.201Z,12.11
2018-04-15T18:13:40.683Z,12.07
2018-04-15T18:16:11.246Z,12.08
2018-04-15T18:18:39.777Z,12.05
2018-04-15T18:21:09.560Z,12.04
2018-04-15T18:23:38.131Z,12.07
2018-04-15T18:26:06.431Z,12.05
2018-04-15T18:28:34.731Z,11.97
2018-04-15T18:31:04.857Z,12.02
2018-04-15T18:33:33.940Z,12.01
2018-04-15T18:36:02.240Z,12.03
2018-04-15T18:38:31.682Z,12.02
2018-04-15T18:41:00.104Z,11.99
2018-04-15T18:43:28.423Z,11.97
2018-04-15T18:45:56.830Z,11.94
2018-04-15T18:48:25.121Z,11.92
2018-04-15T18:50:53.475Z,11.91
2018-04-15T18:53:21.764Z,11.89
2018-04-15T18:55:50.050Z,11.91
2018-04-15T18:58:18.425Z,11.91
2018-04-15T19:00:47.022Z,11.89
2018-04-15T19:03:15.900Z,11.87
2018-04-15T19:05:44.212Z,11.87
2018-04-15T19:08:12.784Z,11.86
2018-04-15T19:10:41.235Z,11.88
2018-04-15T19:13:09.533Z,11.90
2018-04-15T19:15:38.576Z,11.91
2018-04-15T19:18:08.391Z,11.96
2018-04-15T19:20:38.223Z,11.88
2018-04-15T19:23:07.227Z,11.91
2018-04-15T19:25:35.515Z,11.85
2018-04-15T19:28:06.840Z,11.83
2018-04-15T19:30:35.893Z,11.85
2018-04-15T19:33:04.192Z,11.86
2018-04-15T19:35:32.524Z,11.89
2018-04-15T19:38:00.898Z,11.85
2018-04-15T19:40:29.256Z,11.87
2018-04-15T19:42:59.523Z,11.90
2018-04-15T19:45:27.811Z,11.88
2018-04-15T19:47:56.679Z,11.86
2018-04-15T19:50:25.020Z,11.82
2018-04-15T19:52:54.584Z,11.82
2018-04-15T19:55:22.878Z,11.79
2018-04-15T19:57:51.463Z,11.72
2018-04-15T20:00:19.853Z,11.70
2018-04-15T20:02:48.170Z,11.64
2018-04-15T20:05:16.689Z,11.62
2018-04-15T20:07:45.619Z,11.58
2018-04-15T20:10:14.678Z,11.54
2018-04-15T20:12:44.110Z,11.43
2018-04-15T20:15:15.288Z,11.30
2018-04-15T20:17:44.055Z,11.19
2018-04-15T20:20:13.865Z,10.99
2018-04-15T20:22:43.267Z,10.93
2018-04-15T20:25:13.344Z,10.84
2018-04-15T20:27:42.490Z,10.81
2018-04-15T20:30:12.050Z,10.87
2018-04-15T20:32:40.432Z,10.87
2018-04-15T20:35:08.722Z,10.93
2018-04-15T20:37:37.083Z,10.90
2018-04-15T20:40:06.279Z,10.83
2018-04-15T20:42:34.683Z,10.72
2018-04-15T20:45:02.973Z,10.65
2018-04-15T20:47:31.541Z,10.60
2018-04-15T20:49:59.820Z,10.50
2018-04-15T20:52:28.877Z,10.46
2018-04-15T20:54:57.531Z,10.29
2018-04-15T20:57:28.343Z,10.20
2018-04-15T20:59:56.634Z,10.13
2018-04-15T21:02:25.784Z,10.05
2018-04-15T21:04:54.315Z,9.92
2018-04-15T21:07:22.619Z,9.80
2018-04-15T21:09:51.667Z,9.76
2018-04-15T21:12:20.701Z,9.80
2018-04-15T21:14:49.759Z,9.86
2018-04-15T21:17:18.855Z,9.87
2018-04-15T21:19:48.184Z,9.88
2018-04-15T21:22:16.431Z,9.81
2018-04-15T21:24:44.708Z,9.80
2018-04-15T21:27:13.184Z,9.72
2018-04-15T21:29:41.459Z,9.68
2018-04-15T21:32:10.431Z,9.65
2018-04-15T21:34:39.371Z,9.64
2018-04-15T21:37:09.187Z,9.59
2018-04-15T21:39:38.518Z,9.55
2018-04-15T21:42:07.567Z,9.36
2018-04-15T21:44:36.739Z,9.29
2018-04-15T21:47:05.143Z,9.24
2018-04-15T21:49:33.634Z,9.18
2018-04-15T21:52:02.002Z,9.18
2018-04-15T21:54:30.602Z,9.21
2018-04-15T21:56:59.264Z,9.21
2018-04-15T21:59:28.570Z,9.23
2018-04-15T22:02:00.024Z,9.14
2018-04-15T22:04:28.519Z,9.10
2018-04-15T22:06:57.679Z,9.09
2018-04-15T22:09:26.826Z,9.01
2018-04-15T22:12:13.242Z,9.07
2018-04-15T22:14:41.674Z,9.08
2018-04-15T22:17:12.936Z,9.02
2018-04-15T22:19:41.436Z,8.97
2018-04-15T22:22:09.798Z,8.99
2018-04-15T22:24:38.070Z,8.99
2018-04-15T22:27:06.380Z,9.01
2018-04-15T22:29:34.639Z,9.02
2018-04-15T22:32:04.390Z,9.00
2018-04-15T22:34:32.626Z,8.97
2018-04-15T22:37:00.898Z,8.98
2018-04-15T22:39:29.174Z,8.99
2018-04-15T22:41:57.651Z,8.97
2018-04-15T22:44:26.369Z,8.92
2018-04-15T22:46:55.343Z,8.95
2018-04-15T22:49:23.672Z,8.97
2018-04-15T22:51:52.715Z,8.94
2018-04-15T22:54:21.895Z,8.64
2018-04-15T22:56:50.503Z,8.59
2018-04-15T22:59:18.899Z,8.50
2018-04-15T23:01:47.194Z,8.51
2018-04-15T23:04:16.279Z,8.56
2018-04-15T23:06:45.174Z,8.56
2018-04-15T23:09:13.439Z,8.63
2018-04-15T23:11:41.859Z,8.84
2018-04-15T23:14:11.823Z,8.94
2018-04-15T23:16:40.122Z,8.92
2018-04-15T23:19:08.464Z,8.96
2018-04-15T23:21:37.409Z,8.91
2018-04-15T23:24:06.490Z,8.95
2018-04-15T23:26:35.610Z,8.96
2018-04-15T23:29:05.170Z,8.98
2018-04-15T23:31:34.458Z,8.97
2018-04-15T23:34:02.754Z,8.96
2018-04-15T23:36:31.126Z,8.98
2018-04-15T23:38:59.571Z,8.99
2018-04-15T23:41:28.719Z,8.99
2018-04-15T23:43:57.009Z,8.95
2018-04-15T23:46:26.103Z,8.93
2018-04-15T23:48:55.157Z,8.94
2018-04-15T23:51:23.434Z,8.88
2018-04-15T23:53:53.470Z,8.93
2018-04-15T23:56:21.774Z,8.94
2018-04-15T23:58:50.324Z,8.92
